sensor_id;sensor_type;location;lat;lon;timestamp;P1;durP1;ratioP1;P2;durP2;ratioP2
49860;SDS011;35761;48.826;9.238;2024-03-08T00:00:26;31.75;;;17.33;;
49860;SDS011;35761;48.826;9.238;2024-03-08T00:02:52;28.95;;;15.63;;
49860;SDS011;35761;48.826;9.238;2024-03-08T00:05:17;26.17;;;16.50;;
49860;SDS011;35761;48.826;9.238;2024-03-08T00:07:43;28.00;;;16.75;;
49860;SDS011;35761;48.826;9.238;2024-03-08T00:10:10;27.90;;;16.27;;
49860;SDS011;35761;48.826;9.238;2024-03-08T00:12:43;29.05;;;16.50;;
49860;SDS011;35761;48.826;9.238;2024-03-08T00:15:16;27.73;;;17.35;;
49860;SDS011;35761;48.826;9.238;2024-03-08T00:17:42;31.85;;;17.20;;
49860;SDS011;35761;48.826;9.238;2024-03-08T00:20:08;28.38;;;16.50;;
49860;SDS011;35761;48.826;9.238;2024-03-08T00:22:34;28.45;;;16.60;;
49860;SDS011;35761;48.826;9.238;2024-03-08T00:25:01;28.90;;;16.35;;
49860;SDS011;35761;48.826;9.238;2024-03-08T00:27:27;28.30;;;17.38;;
49860;SDS011;35761;48.826;9.238;2024-03-08T00:29:53;31.27;;;17.85;;
49860;SDS011;35761;48.826;9.238;2024-03-08T00:32:19;27.65;;;16.27;;
49860;SDS011;35761;48.826;9.238;2024-03-08T00:34:44;26.90;;;16.08;;
49860;SDS011;35761;48.826;9.238;2024-03-08T00:37:10;32.53;;;17.10;;
49860;SDS011;35761;48.826;9.238;2024-03-08T00:39:36;26.70;;;16.00;;
49860;SDS011;35761;48.826;9.238;2024-03-08T00:42:01;30.67;;;17.80;;
49860;SDS011;35761;48.826;9.238;2024-03-08T00:44:27;28.10;;;17.02;;
49860;SDS011;35761;48.826;9.238;2024-03-08T00:46:52;25.05;;;15.52;;
49860;SDS011;35761;48.826;9.238;2024-03-08T00:49:17;24.88;;;15.02;;
49860;SDS011;35761;48.826;9.238;2024-03-08T00:51:43;29.13;;;15.75;;
49860;SDS011;35761;48.826;9.238;2024-03-08T00:54:08;29.58;;;17.40;;
49860;SDS011;35761;48.826;9.238;2024-03-08T00:56:34;29.42;;;17.10;;
49860;SDS011;35761;48.826;9.238;2024-03-08T00:59:00;25.98;;;15.15;;
49860;SDS011;35761;48.826;9.238;2024-03-08T01:01:27;26.02;;;16.33;;
49860;SDS011;35761;48.826;9.238;2024-03-08T01:03:53;26.65;;;16.73;;
49860;SDS011;35761;48.826;9.238;2024-03-08T01:06:19;33.95;;;17.05;;
49860;SDS011;35761;48.826;9.238;2024-03-08T01:08:45;28.27;;;16.33;;
49860;SDS011;35761;48.826;9.238;2024-03-08T01:11:12;26.85;;;16.70;;
49860;SDS011;35761;48.826;9.238;2024-03-08T01:13:39;30.02;;;17.20;;
49860;SDS011;35761;48.826;9.238;2024-03-08T01:16:04;25.70;;;16.00;;
49860;SDS011;35761;48.826;9.238;2024-03-08T01:18:30;26.60;;;16.70;;
49860;SDS011;35761;48.826;9.238;2024-03-08T01:20:55;29.48;;;17.13;;
49860;SDS011;35761;48.826;9.238;2024-03-08T01:23:21;26.02;;;16.67;;
49860;SDS011;35761;48.826;9.238;2024-03-08T01:25:46;26.02;;;16.05;;
49860;SDS011;35761;48.826;9.238;2024-03-08T01:28:14;26.70;;;16.63;;
49860;SDS011;35761;48.826;9.238;2024-03-08T01:30:39;26.85;;;17.02;;
49860;SDS011;35761;48.826;9.238;2024-03-08T01:33:05;28.55;;;16.60;;
49860;SDS011;35761;48.826;9.238;2024-03-08T01:35:30;28.13;;;16.30;;
49860;SDS011;35761;48.826;9.238;2024-03-08T01:37:56;27.15;;;16.17;;
49860;SDS011;35761;48.826;9.238;2024-03-08T01:40:21;28.70;;;15.43;;
49860;SDS011;35761;48.826;9.238;2024-03-08T01:42:47;28.70;;;16.48;;
49860;SDS011;35761;48.826;9.238;2024-03-08T01:45:13;26.23;;;16.55;;
49860;SDS011;35761;48.826;9.238;2024-03-08T01:47:38;25.55;;;16.33;;
49860;SDS011;35761;48.826;9.238;2024-03-08T01:50:04;30.77;;;17.08;;
49860;SDS011;35761;48.826;9.238;2024-03-08T01:52:31;26.42;;;15.30;;
49860;SDS011;35761;48.826;9.238;2024-03-08T01:55:01;27.15;;;15.90;;
49860;SDS011;35761;48.826;9.238;2024-03-08T01:57:29;26.58;;;15.52;;
49860;SDS011;35761;48.826;9.238;2024-03-08T01:59:56;28.73;;;16.23;;
49860;SDS011;35761;48.826;9.238;2024-03-08T02:02:22;27.35;;;15.23;;
49860;SDS011;35761;48.826;9.238;2024-03-08T02:04:48;23.92;;;14.73;;
49860;SDS011;35761;48.826;9.238;2024-03-08T02:07:14;27.10;;;15.65;;
49860;SDS011;35761;48.826;9.238;2024-03-08T02:09:39;26.42;;;15.80;;
49860;SDS011;35761;48.826;9.238;2024-03-08T02:12:05;24.23;;;14.93;;
49860;SDS011;35761;48.826;9.238;2024-03-08T02:14:35;26.10;;;15.60;;
49860;SDS011;35761;48.826;9.238;2024-03-08T02:17:01;26.15;;;15.30;;
49860;SDS011;35761;48.826;9.238;2024-03-08T02:19:27;27.35;;;15.45;;
49860;SDS011;35761;48.826;9.238;2024-03-08T02:21:53;24.05;;;14.90;;
49860;SDS011;35761;48.826;9.238;2024-03-08T02:24:19;25.05;;;15.93;;
49860;SDS011;35761;48.826;9.238;2024-03-08T02:26:44;28.08;;;14.73;;
49860;SDS011;35761;48.826;9.238;2024-03-08T02:29:10;24.45;;;15.13;;
49860;SDS011;35761;48.826;9.238;2024-03-08T02:31:35;25.80;;;16.05;;
49860;SDS011;35761;48.826;9.238;2024-03-08T02:34:01;26.92;;;14.95;;
49860;SDS011;35761;48.826;9.238;2024-03-08T02:36:26;25.30;;;15.20;;
49860;SDS011;35761;48.826;9.238;2024-03-08T02:38:52;26.13;;;14.27;;
49860;SDS011;35761;48.826;9.238;2024-03-08T02:41:17;26.52;;;15.23;;
49860;SDS011;35761;48.826;9.238;2024-03-08T02:43:43;27.95;;;14.88;;
49860;SDS011;35761;48.826;9.238;2024-03-08T02:46:10;25.25;;;14.95;;
49860;SDS011;35761;48.826;9.238;2024-03-08T02:48:36;24.83;;;14.73;;
49860;SDS011;35761;48.826;9.238;2024-03-08T02:51:01;27.88;;;14.70;;
49860;SDS011;35761;48.826;9.238;2024-03-08T02:53:27;27.17;;;14.20;;
49860;SDS011;35761;48.826;9.238;2024-03-08T02:55:53;25.83;;;15.45;;
49860;SDS011;35761;48.826;9.238;2024-03-08T02:58:18;26.13;;;14.77;;
49860;SDS011;35761;48.826;9.238;2024-03-08T03:00:44;23.60;;;14.38;;
49860;SDS011;35761;48.826;9.238;2024-03-08T03:03:10;24.50;;;14.90;;
49860;SDS011;35761;48.826;9.238;2024-03-08T03:05:35;24.80;;;14.75;;
49860;SDS011;35761;48.826;9.238;2024-03-08T03:08:01;32.75;;;14.88;;
49860;SDS011;35761;48.826;9.238;2024-03-08T03:10:29;26.08;;;15.30;;
49860;SDS011;35761;48.826;9.238;2024-03-08T03:12:54;25.20;;;14.23;;
49860;SDS011;35761;48.826;9.238;2024-03-08T03:15:20;24.55;;;15.38;;
49860;SDS011;35761;48.826;9.238;2024-03-08T03:17:46;23.90;;;14.70;;
49860;SDS011;35761;48.826;9.238;2024-03-08T03:20:13;25.27;;;13.40;;
49860;SDS011;35761;48.826;9.238;2024-03-08T03:22:39;24.35;;;14.73;;
49860;SDS011;35761;48.826;9.238;2024-03-08T03:25:12;24.90;;;14.45;;
49860;SDS011;35761;48.826;9.238;2024-03-08T03:27:38;26.58;;;15.77;;
49860;SDS011;35761;48.826;9.238;2024-03-08T03:30:05;31.55;;;17.85;;
49860;SDS011;35761;48.826;9.238;2024-03-08T03:32:49;26.13;;;15.60;;
49860;SDS011;35761;48.826;9.238;2024-03-08T03:35:19;24.80;;;13.95;;
49860;SDS011;35761;48.826;9.238;2024-03-08T03:37:46;28.60;;;13.88;;
49860;SDS011;35761;48.826;9.238;2024-03-08T03:40:29;23.75;;;14.68;;
49860;SDS011;35761;48.826;9.238;2024-03-08T03:42:55;28.55;;;16.00;;
49860;SDS011;35761;48.826;9.238;2024-03-08T03:45:21;23.88;;;14.32;;
49860;SDS011;35761;48.826;9.238;2024-03-08T03:47:46;23.05;;;14.02;;
49860;SDS011;35761;48.826;9.238;2024-03-08T03:50:12;22.55;;;14.07;;
49860;SDS011;35761;48.826;9.238;2024-03-08T03:52:37;22.02;;;13.73;;
49860;SDS011;35761;48.826;9.238;2024-03-08T03:55:03;22.80;;;13.75;;
49860;SDS011;35761;48.826;9.238;2024-03-08T03:57:29;24.02;;;13.60;;
49860;SDS011;35761;48.826;9.238;2024-03-08T03:59:58;27.77;;;15.52;;
49860;SDS011;35761;48.826;9.238;2024-03-08T04:02:24;27.60;;;16.30;;
49860;SDS011;35761;48.826;9.238;2024-03-08T04:04:52;26.00;;;13.60;;
49860;SDS011;35761;48.826;9.238;2024-03-08T04:07:17;25.48;;;13.73;;
49860;SDS011;35761;48.826;9.238;2024-03-08T04:09:43;22.35;;;12.95;;
49860;SDS011;35761;48.826;9.238;2024-03-08T04:12:09;23.58;;;12.90;;
49860;SDS011;35761;48.826;9.238;2024-03-08T04:14:35;21.23;;;13.20;;
49860;SDS011;35761;48.826;9.238;2024-03-08T04:17:01;19.42;;;12.85;;
49860;SDS011;35761;48.826;9.238;2024-03-08T04:19:27;24.45;;;14.07;;
49860;SDS011;35761;48.826;9.238;2024-03-08T04:21:53;24.23;;;13.98;;
49860;SDS011;35761;48.826;9.238;2024-03-08T04:24:19;23.95;;;13.77;;
49860;SDS011;35761;48.826;9.238;2024-03-08T04:26:45;22.55;;;13.25;;
49860;SDS011;35761;48.826;9.238;2024-03-08T04:29:11;24.50;;;14.15;;
49860;SDS011;35761;48.826;9.238;2024-03-08T04:31:39;28.58;;;16.27;;
49860;SDS011;35761;48.826;9.238;2024-03-08T04:34:05;23.42;;;14.75;;
49860;SDS011;35761;48.826;9.238;2024-03-08T04:36:31;29.90;;;16.92;;
49860;SDS011;35761;48.826;9.238;2024-03-08T04:38:56;25.58;;;15.57;;
49860;SDS011;35761;48.826;9.238;2024-03-08T04:41:22;24.38;;;14.55;;
49860;SDS011;35761;48.826;9.238;2024-03-08T04:43:48;21.55;;;13.82;;
49860;SDS011;35761;48.826;9.238;2024-03-08T04:46:14;26.95;;;14.75;;
49860;SDS011;35761;48.826;9.238;2024-03-08T04:48:39;23.25;;;14.35;;
49860;SDS011;35761;48.826;9.238;2024-03-08T04:51:07;24.00;;;14.55;;
49860;SDS011;35761;48.826;9.238;2024-03-08T04:53:33;25.83;;;14.65;;
49860;SDS011;35761;48.826;9.238;2024-03-08T04:55:59;25.20;;;13.95;;
49860;SDS011;35761;48.826;9.238;2024-03-08T04:58:25;25.70;;;14.40;;
49860;SDS011;35761;48.826;9.238;2024-03-08T05:00:50;27.35;;;15.68;;
49860;SDS011;35761;48.826;9.238;2024-03-08T05:03:16;24.85;;;15.13;;
49860;SDS011;35761;48.826;9.238;2024-03-08T05:05:42;28.80;;;14.93;;
49860;SDS011;35761;48.826;9.238;2024-03-08T05:08:07;26.67;;;14.75;;
49860;SDS011;35761;48.826;9.238;2024-03-08T05:10:33;27.25;;;15.70;;
49860;SDS011;35761;48.826;9.238;2024-03-08T05:12:58;30.00;;;16.65;;
49860;SDS011;35761;48.826;9.238;2024-03-08T05:15:24;27.60;;;15.40;;
49860;SDS011;35761;48.826;9.238;2024-03-08T05:17:49;24.13;;;14.25;;
49860;SDS011;35761;48.826;9.238;2024-03-08T05:20:15;26.50;;;15.50;;
49860;SDS011;35761;48.826;9.238;2024-03-08T05:22:42;28.33;;;16.27;;
49860;SDS011;35761;48.826;9.238;2024-03-08T05:25:08;25.92;;;15.55;;
49860;SDS011;35761;48.826;9.238;2024-03-08T05:27:34;27.30;;;16.48;;
49860;SDS011;35761;48.826;9.238;2024-03-08T05:30:02;29.88;;;16.55;;
49860;SDS011;35761;48.826;9.238;2024-03-08T05:32:29;30.42;;;17.48;;
49860;SDS011;35761;48.826;9.238;2024-03-08T05:34:54;27.38;;;15.98;;
49860;SDS011;35761;48.826;9.238;2024-03-08T05:37:20;28.13;;;15.60;;
49860;SDS011;35761;48.826;9.238;2024-03-08T05:39:45;27.10;;;15.75;;
49860;SDS011;35761;48.826;9.238;2024-03-08T05:42:11;25.80;;;15.88;;
49860;SDS011;35761;48.826;9.238;2024-03-08T05:44:36;27.38;;;15.93;;
49860;SDS011;35761;48.826;9.238;2024-03-08T05:47:02;29.38;;;15.88;;
49860;SDS011;35761;48.826;9.238;2024-03-08T05:49:27;32.80;;;17.90;;
49860;SDS011;35761;48.826;9.238;2024-03-08T05:51:53;30.67;;;17.42;;
49860;SDS011;35761;48.826;9.238;2024-03-08T05:54:19;29.30;;;15.68;;
49860;SDS011;35761;48.826;9.238;2024-03-08T05:56:47;30.88;;;17.48;;
49860;SDS011;35761;48.826;9.238;2024-03-08T05:59:12;25.73;;;16.25;;
49860;SDS011;35761;48.826;9.238;2024-03-08T06:01:38;24.95;;;16.05;;
49860;SDS011;35761;48.826;9.238;2024-03-08T06:04:06;26.60;;;16.35;;
49860;SDS011;35761;48.826;9.238;2024-03-08T06:06:32;31.60;;;19.35;;
49860;SDS011;35761;48.826;9.238;2024-03-08T06:08:58;34.30;;;19.73;;
49860;SDS011;35761;48.826;9.238;2024-03-08T06:11:24;37.60;;;22.20;;
49860;SDS011;35761;48.826;9.238;2024-03-08T06:13:52;30.05;;;18.27;;
49860;SDS011;35761;48.826;9.238;2024-03-08T06:16:20;32.45;;;19.35;;
49860;SDS011;35761;48.826;9.238;2024-03-08T06:18:46;40.20;;;21.33;;
49860;SDS011;35761;48.826;9.238;2024-03-08T06:21:12;27.13;;;16.70;;
49860;SDS011;35761;48.826;9.238;2024-03-08T06:23:37;31.33;;;17.27;;
49860;SDS011;35761;48.826;9.238;2024-03-08T06:26:06;28.10;;;16.60;;
49860;SDS011;35761;48.826;9.238;2024-03-08T06:28:34;34.15;;;17.40;;
49860;SDS011;35761;48.826;9.238;2024-03-08T06:31:00;26.88;;;16.70;;
49860;SDS011;35761;48.826;9.238;2024-03-08T06:33:26;30.92;;;19.35;;
49860;SDS011;35761;48.826;9.238;2024-03-08T06:35:53;28.83;;;17.67;;
49860;SDS011;35761;48.826;9.238;2024-03-08T06:38:22;26.92;;;16.67;;
49860;SDS011;35761;48.826;9.238;2024-03-08T06:40:50;27.38;;;16.98;;
49860;SDS011;35761;48.826;9.238;2024-03-08T06:43:16;28.08;;;16.77;;
49860;SDS011;35761;48.826;9.238;2024-03-08T06:45:43;27.70;;;17.40;;
49860;SDS011;35761;48.826;9.238;2024-03-08T06:48:17;30.55;;;18.63;;
49860;SDS011;35761;48.826;9.238;2024-03-08T06:50:46;29.67;;;17.38;;
49860;SDS011;35761;48.826;9.238;2024-03-08T06:53:12;28.30;;;17.20;;
49860;SDS011;35761;48.826;9.238;2024-03-08T06:55:38;31.25;;;17.10;;
49860;SDS011;35761;48.826;9.238;2024-03-08T06:58:04;26.40;;;16.17;;
49860;SDS011;35761;48.826;9.238;2024-03-08T07:00:30;28.38;;;16.73;;
49860;SDS011;35761;48.826;9.238;2024-03-08T07:02:56;29.15;;;16.50;;
49860;SDS011;35761;48.826;9.238;2024-03-08T07:05:26;27.50;;;16.90;;
49860;SDS011;35761;48.826;9.238;2024-03-08T07:07:52;30.08;;;15.55;;
49860;SDS011;35761;48.826;9.238;2024-03-08T07:10:18;28.05;;;17.05;;
49860;SDS011;35761;48.826;9.238;2024-03-08T07:12:44;28.38;;;17.20;;
49860;SDS011;35761;48.826;9.238;2024-03-08T07:15:10;26.38;;;16.75;;
49860;SDS011;35761;48.826;9.238;2024-03-08T07:17:40;27.98;;;15.52;;
49860;SDS011;35761;48.826;9.238;2024-03-08T07:20:09;30.60;;;17.48;;
49860;SDS011;35761;48.826;9.238;2024-03-08T07:22:37;29.23;;;17.38;;
49860;SDS011;35761;48.826;9.238;2024-03-08T07:25:06;27.63;;;17.70;;
49860;SDS011;35761;48.826;9.238;2024-03-08T07:27:32;31.60;;;18.33;;
49860;SDS011;35761;48.826;9.238;2024-03-08T07:29:59;28.00;;;16.10;;
49860;SDS011;35761;48.826;9.238;2024-03-08T07:32:26;28.08;;;17.48;;
49860;SDS011;35761;48.826;9.238;2024-03-08T07:34:53;24.60;;;15.85;;
49860;SDS011;35761;48.826;9.238;2024-03-08T07:37:20;24.88;;;16.05;;
49860;SDS011;35761;48.826;9.238;2024-03-08T07:39:46;29.77;;;16.92;;
49860;SDS011;35761;48.826;9.238;2024-03-08T07:42:12;26.67;;;15.80;;
49860;SDS011;35761;48.826;9.238;2024-03-08T07:44:37;27.58;;;17.05;;
49860;SDS011;35761;48.826;9.238;2024-03-08T07:47:03;29.23;;;17.55;;
49860;SDS011;35761;48.826;9.238;2024-03-08T07:49:29;28.88;;;17.65;;
49860;SDS011;35761;48.826;9.238;2024-03-08T07:51:55;27.55;;;16.95;;
49860;SDS011;35761;48.826;9.238;2024-03-08T07:54:21;28.88;;;16.92;;
49860;SDS011;35761;48.826;9.238;2024-03-08T07:56:47;28.45;;;16.45;;
49860;SDS011;35761;48.826;9.238;2024-03-08T07:59:12;25.52;;;15.98;;
49860;SDS011;35761;48.826;9.238;2024-03-08T08:01:38;29.17;;;17.23;;
49860;SDS011;35761;48.826;9.238;2024-03-08T08:04:03;32.10;;;16.67;;
49860;SDS011;35761;48.826;9.238;2024-03-08T08:06:30;27.65;;;16.02;;
49860;SDS011;35761;48.826;9.238;2024-03-08T08:08:58;27.73;;;16.52;;
49860;SDS011;35761;48.826;9.238;2024-03-08T08:11:27;28.20;;;17.38;;
49860;SDS011;35761;48.826;9.238;2024-03-08T08:13:53;28.48;;;16.58;;
49860;SDS011;35761;48.826;9.238;2024-03-08T08:16:20;29.20;;;17.35;;
49860;SDS011;35761;48.826;9.238;2024-03-08T08:18:47;26.92;;;15.27;;
49860;SDS011;35761;48.826;9.238;2024-03-08T08:21:13;27.70;;;16.23;;
49860;SDS011;35761;48.826;9.238;2024-03-08T08:23:39;26.70;;;17.13;;
49860;SDS011;35761;48.826;9.238;2024-03-08T08:26:05;30.67;;;17.38;;
49860;SDS011;35761;48.826;9.238;2024-03-08T08:28:32;26.73;;;15.80;;
49860;SDS011;35761;48.826;9.238;2024-03-08T08:30:58;25.88;;;15.95;;
49860;SDS011;35761;48.826;9.238;2024-03-08T08:33:25;27.35;;;16.60;;
49860;SDS011;35761;48.826;9.238;2024-03-08T08:35:50;27.10;;;16.65;;
49860;SDS011;35761;48.826;9.238;2024-03-08T08:38:19;29.73;;;16.05;;
49860;SDS011;35761;48.826;9.238;2024-03-08T08:40:45;24.58;;;15.48;;
49860;SDS011;35761;48.826;9.238;2024-03-08T08:43:12;27.00;;;16.83;;
49860;SDS011;35761;48.826;9.238;2024-03-08T08:45:38;24.73;;;16.23;;
49860;SDS011;35761;48.826;9.238;2024-03-08T08:48:04;25.60;;;15.60;;
49860;SDS011;35761;48.826;9.238;2024-03-08T08:50:30;25.95;;;15.98;;
49860;SDS011;35761;48.826;9.238;2024-03-08T08:52:56;25.70;;;15.52;;
49860;SDS011;35761;48.826;9.238;2024-03-08T08:55:22;26.30;;;15.18;;
49860;SDS011;35761;48.826;9.238;2024-03-08T08:57:51;33.95;;;18.85;;
49860;SDS011;35761;48.826;9.238;2024-03-08T09:00:17;26.20;;;15.55;;
49860;SDS011;35761;48.826;9.238;2024-03-08T09:02:45;26.70;;;16.23;;
49860;SDS011;35761;48.826;9.238;2024-03-08T09:05:10;27.48;;;16.67;;
49860;SDS011;35761;48.826;9.238;2024-03-08T09:07:43;29.83;;;16.70;;
49860;SDS011;35761;48.826;9.238;2024-03-08T09:10:10;28.35;;;16.83;;
49860;SDS011;35761;48.826;9.238;2024-03-08T09:12:37;26.88;;;15.73;;
49860;SDS011;35761;48.826;9.238;2024-03-08T09:15:05;28.50;;;16.73;;
49860;SDS011;35761;48.826;9.238;2024-03-08T09:17:33;26.70;;;15.93;;
49860;SDS011;35761;48.826;9.238;2024-03-08T09:19:59;24.38;;;15.50;;
49860;SDS011;35761;48.826;9.238;2024-03-08T09:22:24;23.45;;;14.85;;
49860;SDS011;35761;48.826;9.238;2024-03-08T09:24:50;24.35;;;15.20;;
49860;SDS011;35761;48.826;9.238;2024-03-08T09:27:16;28.15;;;15.55;;
49860;SDS011;35761;48.826;9.238;2024-03-08T09:29:41;25.60;;;15.73;;
49860;SDS011;35761;48.826;9.238;2024-03-08T09:32:07;25.02;;;15.60;;
49860;SDS011;35761;48.826;9.238;2024-03-08T09:34:32;25.90;;;15.60;;
49860;SDS011;35761;48.826;9.238;2024-03-08T09:36:58;23.10;;;14.98;;
49860;SDS011;35761;48.826;9.238;2024-03-08T09:39:24;26.98;;;16.02;;
49860;SDS011;35761;48.826;9.238;2024-03-08T09:41:49;24.92;;;15.02;;
49860;SDS011;35761;48.826;9.238;2024-03-08T09:44:18;25.23;;;15.02;;
49860;SDS011;35761;48.826;9.238;2024-03-08T09:46:45;26.13;;;15.13;;
49860;SDS011;35761;48.826;9.238;2024-03-08T09:49:12;27.00;;;16.77;;
49860;SDS011;35761;48.826;9.238;2024-03-08T09:51:38;34.20;;;18.10;;
49860;SDS011;35761;48.826;9.238;2024-03-08T09:54:05;26.48;;;15.63;;
49860;SDS011;35761;48.826;9.238;2024-03-08T09:56:40;25.73;;;15.45;;
49860;SDS011;35761;48.826;9.238;2024-03-08T09:59:06;26.13;;;14.80;;
49860;SDS011;35761;48.826;9.238;2024-03-08T10:02:01;26.20;;;15.32;;
49860;SDS011;35761;48.826;9.238;2024-03-08T10:04:30;24.55;;;14.60;;
49860;SDS011;35761;48.826;9.238;2024-03-08T10:07:00;29.10;;;15.95;;
49860;SDS011;35761;48.826;9.238;2024-03-08T10:09:26;24.48;;;15.35;;
49860;SDS011;35761;48.826;9.238;2024-03-08T10:11:55;24.67;;;15.25;;
49860;SDS011;35761;48.826;9.238;2024-03-08T10:14:21;23.65;;;14.43;;
49860;SDS011;35761;48.826;9.238;2024-03-08T10:16:46;23.70;;;15.43;;
49860;SDS011;35761;48.826;9.238;2024-03-08T10:19:12;24.92;;;14.63;;
49860;SDS011;35761;48.826;9.238;2024-03-08T10:21:47;24.42;;;15.52;;
49860;SDS011;35761;48.826;9.238;2024-03-08T10:24:18;25.83;;;15.68;;
49860;SDS011;35761;48.826;9.238;2024-03-08T10:26:44;28.48;;;17.20;;
49860;SDS011;35761;48.826;9.238;2024-03-08T10:29:09;26.42;;;15.30;;
49860;SDS011;35761;48.826;9.238;2024-03-08T10:31:35;29.85;;;16.70;;
49860;SDS011;35761;48.826;9.238;2024-03-08T10:34:01;26.27;;;15.93;;
49860;SDS011;35761;48.826;9.238;2024-03-08T10:36:27;26.30;;;15.80;;
49860;SDS011;35761;48.826;9.238;2024-03-08T10:38:54;24.90;;;15.40;;
49860;SDS011;35761;48.826;9.238;2024-03-08T10:41:22;25.33;;;14.90;;
49860;SDS011;35761;48.826;9.238;2024-03-08T10:49:21;25.42;;;15.32;;
49860;SDS011;35761;48.826;9.238;2024-03-08T10:51:56;24.60;;;15.45;;
49860;SDS011;35761;48.826;9.238;2024-03-08T10:54:21;25.85;;;15.13;;
49860;SDS011;35761;48.826;9.238;2024-03-08T10:56:48;25.02;;;15.35;;
49860;SDS011;35761;48.826;9.238;2024-03-08T10:59:14;24.15;;;15.50;;
49860;SDS011;35761;48.826;9.238;2024-03-08T11:01:40;25.48;;;15.82;;
49860;SDS011;35761;48.826;9.238;2024-03-08T11:04:05;22.60;;;14.05;;
49860;SDS011;35761;48.826;9.238;2024-03-08T11:09:03;24.77;;;15.98;;
49860;SDS011;35761;48.826;9.238;2024-03-08T11:11:38;29.70;;;15.63;;
49860;SDS011;35761;48.826;9.238;2024-03-08T11:14:05;25.42;;;15.93;;
49860;SDS011;35761;48.826;9.238;2024-03-08T11:16:56;25.45;;;15.65;;
49860;SDS011;35761;48.826;9.238;2024-03-08T11:19:26;25.50;;;15.90;;
49860;SDS011;35761;48.826;9.238;2024-03-08T11:22:00;30.00;;;16.80;;
49860;SDS011;35761;48.826;9.238;2024-03-08T11:24:27;28.48;;;16.73;;
49860;SDS011;35761;48.826;9.238;2024-03-08T11:26:58;29.60;;;17.00;;
49860;SDS011;35761;48.826;9.238;2024-03-08T11:32:14;26.40;;;16.52;;
49860;SDS011;35761;48.826;9.238;2024-03-08T11:34:42;29.15;;;15.65;;
49860;SDS011;35761;48.826;9.238;2024-03-08T11:37:12;26.73;;;16.25;;
49860;SDS011;35761;48.826;9.238;2024-03-08T11:39:41;27.23;;;16.58;;
49860;SDS011;35761;48.826;9.238;2024-03-08T11:42:12;27.55;;;16.30;;
49860;SDS011;35761;48.826;9.238;2024-03-08T11:44:38;27.40;;;16.88;;
49860;SDS011;35761;48.826;9.238;2024-03-08T11:47:08;25.13;;;15.88;;
49860;SDS011;35761;48.826;9.238;2024-03-08T11:49:35;27.27;;;16.65;;
49860;SDS011;35761;48.826;9.238;2024-03-08T11:52:01;30.77;;;17.65;;
49860;SDS011;35761;48.826;9.238;2024-03-08T11:54:28;23.92;;;16.35;;
49860;SDS011;35761;48.826;9.238;2024-03-08T11:56:55;27.02;;;17.05;;
49860;SDS011;35761;48.826;9.238;2024-03-08T11:59:27;24.63;;;16.25;;
49860;SDS011;35761;48.826;9.238;2024-03-08T12:02:06;27.75;;;16.08;;
49860;SDS011;35761;48.826;9.238;2024-03-08T12:04:32;23.17;;;16.27;;
49860;SDS011;35761;48.826;9.238;2024-03-08T12:07:00;26.00;;;17.77;;
49860;SDS011;35761;48.826;9.238;2024-03-08T12:09:34;27.63;;;16.38;;
49860;SDS011;35761;48.826;9.238;2024-03-08T12:12:01;25.13;;;16.70;;
49860;SDS011;35761;48.826;9.238;2024-03-08T12:14:30;30.33;;;16.33;;
49860;SDS011;35761;48.826;9.238;2024-03-08T12:16:57;25.20;;;16.20;;
49860;SDS011;35761;48.826;9.238;2024-03-08T12:19:22;27.17;;;16.42;;
49860;SDS011;35761;48.826;9.238;2024-03-08T12:21:48;20.90;;;14.80;;
49860;SDS011;35761;48.826;9.238;2024-03-08T12:24:15;28.38;;;16.65;;
49860;SDS011;35761;48.826;9.238;2024-03-08T12:26:45;22.92;;;15.40;;
49860;SDS011;35761;48.826;9.238;2024-03-08T12:29:26;25.58;;;17.65;;
49860;SDS011;35761;48.826;9.238;2024-03-08T12:31:57;26.65;;;17.55;;
49860;SDS011;35761;48.826;9.238;2024-03-08T12:34:26;26.58;;;17.55;;
49860;SDS011;35761;48.826;9.238;2024-03-08T12:36:52;23.48;;;16.50;;
49860;SDS011;35761;48.826;9.238;2024-03-08T12:39:19;24.27;;;17.15;;
49860;SDS011;35761;48.826;9.238;2024-03-08T12:41:52;22.13;;;15.90;;
49860;SDS011;35761;48.826;9.238;2024-03-08T12:44:19;24.90;;;16.20;;
49860;SDS011;35761;48.826;9.238;2024-03-08T12:46:46;22.25;;;15.82;;
49860;SDS011;35761;48.826;9.238;2024-03-08T12:49:13;24.55;;;15.95;;
49860;SDS011;35761;48.826;9.238;2024-03-08T12:51:43;23.15;;;16.23;;
49860;SDS011;35761;48.826;9.238;2024-03-08T12:54:08;21.52;;;15.82;;
49860;SDS011;35761;48.826;9.238;2024-03-08T12:56:34;25.17;;;17.05;;
49860;SDS011;35761;48.826;9.238;2024-03-08T12:59:03;24.73;;;17.55;;
49860;SDS011;35761;48.826;9.238;2024-03-08T13:01:35;26.60;;;18.45;;
49860;SDS011;35761;48.826;9.238;2024-03-08T13:04:03;25.10;;;16.08;;
49860;SDS011;35761;48.826;9.238;2024-03-08T13:06:31;23.77;;;16.30;;
49860;SDS011;35761;48.826;9.238;2024-03-08T13:08:57;23.17;;;15.80;;
49860;SDS011;35761;48.826;9.238;2024-03-08T13:11:23;21.60;;;15.65;;
49860;SDS011;35761;48.826;9.238;2024-03-08T13:13:49;22.48;;;16.20;;
49860;SDS011;35761;48.826;9.238;2024-03-08T13:16:15;23.05;;;15.75;;
49860;SDS011;35761;48.826;9.238;2024-03-08T13:18:42;22.30;;;15.27;;
49860;SDS011;35761;48.826;9.238;2024-03-08T13:21:08;21.85;;;15.43;;
49860;SDS011;35761;48.826;9.238;2024-03-08T13:23:34;23.80;;;15.60;;
49860;SDS011;35761;48.826;9.238;2024-03-08T13:26:09;24.23;;;17.67;;
49860;SDS011;35761;48.826;9.238;2024-03-08T13:28:41;24.85;;;17.45;;
49860;SDS011;35761;48.826;9.238;2024-03-08T13:31:06;21.35;;;15.23;;
49860;SDS011;35761;48.826;9.238;2024-03-08T13:33:33;22.98;;;15.80;;
49860;SDS011;35761;48.826;9.238;2024-03-08T13:36:08;21.63;;;15.70;;
49860;SDS011;35761;48.826;9.238;2024-03-08T13:38:46;21.55;;;15.25;;
49860;SDS011;35761;48.826;9.238;2024-03-08T13:41:13;23.67;;;14.43;;
49860;SDS011;35761;48.826;9.238;2024-03-08T13:43:43;21.08;;;14.93;;
49860;SDS011;35761;48.826;9.238;2024-03-08T13:46:11;20.63;;;15.20;;
49860;SDS011;35761;48.826;9.238;2024-03-08T13:48:36;22.30;;;15.43;;
49860;SDS011;35761;48.826;9.238;2024-03-08T13:51:06;20.38;;;14.65;;
49860;SDS011;35761;48.826;9.238;2024-03-08T13:53:32;22.00;;;14.95;;
49860;SDS011;35761;48.826;9.238;2024-03-08T13:56:00;20.27;;;16.00;;
49860;SDS011;35761;48.826;9.238;2024-03-08T13:58:27;24.05;;;16.58;;
49860;SDS011;35761;48.826;9.238;2024-03-08T14:00:52;22.13;;;14.82;;
49860;SDS011;35761;48.826;9.238;2024-03-08T14:03:18;20.00;;;14.27;;
49860;SDS011;35761;48.826;9.238;2024-03-08T14:05:43;18.25;;;13.85;;
49860;SDS011;35761;48.826;9.238;2024-03-08T14:08:10;18.40;;;14.02;;
49860;SDS011;35761;48.826;9.238;2024-03-08T14:10:37;19.75;;;15.05;;
49860;SDS011;35761;48.826;9.238;2024-03-08T14:13:02;22.20;;;14.23;;
49860;SDS011;35761;48.826;9.238;2024-03-08T14:15:30;18.98;;;15.05;;
49860;SDS011;35761;48.826;9.238;2024-03-08T14:17:56;18.20;;;13.60;;
49860;SDS011;35761;48.826;9.238;2024-03-08T14:20:23;18.95;;;13.60;;
49860;SDS011;35761;48.826;9.238;2024-03-08T14:22:52;22.10;;;15.32;;
49860;SDS011;35761;48.826;9.238;2024-03-08T14:25:19;22.02;;;15.70;;
49860;SDS011;35761;48.826;9.238;2024-03-08T14:27:45;19.45;;;14.70;;
49860;SDS011;35761;48.826;9.238;2024-03-08T14:30:11;21.20;;;15.02;;